Time;durP1;ratioP1;P1;durP2;ratioP2;P2;SDS_P1;SDS_P2;PMS_P1;PMS_P2;Temp;Humidity;BMP_temperature;BMP_pressure;BME280_temperature;BME280_humidity;BME280_pressure;Samples;Min_cycle;Max_cycle;Signal;HPM_P1;HPM_P2
2022/04/13 00:01:41;;;;;;;4.17;3.40;;;;;;;;;;6079715;29;20244;-69
2022/04/13 00:05:03;;;;;;;5.50;4.83;;;;;;;;;;6085096;29;20662;-68
2022/04/13 00:08:24;;;;;;;5.43;4.27;;;;;;;;;;6085616;29;20272;-69
2022/04/13 00:11:44;;;;;;;5.00;4.20;;;;;;;;;;6087138;29;20232;-69
2022/04/13 00:15:06;;;;;;;4.27;3.00;;;;;;;;;;6084965;29;20232;-69
2022/04/13 00:18:26;;;;;;;3.97;3.57;;;;;;;;;;6081489;29;20236;-68
2022/04/13 00:21:49;;;;;;;7.03;3.87;;;;;;;;;;6089144;29;20263;-69
2022/04/13 00:25:10;;;;;;;4.40;3.60;;;;;;;;;;6086295;29;20232;-68
2022/04/13 00:28:30;;;;;;;5.00;3.90;;;;;;;;;;6081474;29;20248;-69
2022/04/13 00:31:51;;;;;;;7.10;4.47;;;;;;;;;;6086955;29;20260;-67
2022/04/13 00:35:12;;;;;;;3.70;3.40;;;;;;;;;;6083921;29;20370;-69
2022/04/13 00:38:34;;;;;;;4.13;3.83;;;;;;;;;;6083285;29;20232;-67
2022/04/13 00:41:58;;;;;;;5.13;4.27;;;;;;;;;;6085801;29;20796;-68
2022/04/13 00:45:18;;;;;;;6.80;4.63;;;;;;;;;;6084774;29;20320;-67
2022/04/13 00:48:42;;;;;;;5.03;3.87;;;;;;;;;;6084526;29;20232;-68
2022/04/13 00:52:04;;;;;;;4.57;4.13;;;;;;;;;;6083341;29;20244;-68
2022/04/13 00:55:26;;;;;;;5.97;3.80;;;;;;;;;;6080863;29;20240;-68
2022/04/13 00:58:48;;;;;;;4.80;3.87;;;;;;;;;;6080833;29;20228;-68
2022/04/13 01:02:09;;;;;;;5.37;4.27;;;;;;;;;;6080368;29;20240;-68
2022/04/13 01:05:30;;;;;;;4.33;3.77;;;;;;;;;;6081834;29;20259;-67
2022/04/13 01:08:51;;;;;;;4.53;4.13;;;;;;;;;;6080229;29;20639;-69
2022/04/13 01:12:13;;;;;;;6.27;4.10;;;;;;;;;;6081411;29;20311;-68
2022/04/13 01:15:33;;;;;;;6.57;4.80;;;;;;;;;;6083652;29;20232;-67
2022/04/13 01:18:55;;;;;;;7.37;4.37;;;;;;;;;;6063634;29;20232;-68
2022/04/13 01:22:20;;;;;;;4.60;4.17;;;;;;;;;;6083246;29;20229;-68
2022/04/13 01:25:47;;;;;;;8.03;4.63;;;;;;;;;;6082110;29;20229;-68
2022/04/13 01:29:08;;;;;;;4.83;4.30;;;;;;;;;;6084630;29;20598;-68
2022/04/13 01:32:29;;;;;;;4.77;4.27;;;;;;;;;;6083788;29;20252;-67
2022/04/13 01:35:50;;;;;;;5.47;4.97;;;;;;;;;;6088937;29;20560;-68
2022/04/13 01:39:12;;;;;;;5.03;4.63;;;;;;;;;;6084591;29;20619;-68
2022/04/13 01:42:33;;;;;;;6.90;4.47;;;;;;;;;;6087845;29;20508;-68
2022/04/13 01:45:55;;;;;;;5.87;4.23;;;;;;;;;;6082413;29;20232;-68
2022/04/13 01:49:15;;;;;;;4.97;4.20;;;;;;;;;;6087058;29;20268;-68
2022/04/13 01:52:36;;;;;;;6.00;5.20;;;;;;;;;;6078414;29;20228;-68
2022/04/13 01:55:58;;;;;;;4.17;3.77;;;;;;;;;;6086477;29;20232;-68
2022/04/13 01:59:19;;;;;;;7.27;5.27;;;;;;;;;;6087908;29;20560;-68
2022/04/13 02:02:39;;;;;;;5.63;4.90;;;;;;;;;;6087928;29;20224;-69
2022/04/13 02:06:00;;;;;;;5.30;4.70;;;;;;;;;;6075506;29;20228;-68
2022/04/13 02:09:21;;;;;;;5.77;4.63;;;;;;;;;;6091802;29;20260;-68
2022/04/13 02:12:44;;;;;;;5.53;4.93;;;;;;;;;;6087224;29;20229;-68
2022/04/13 02:16:05;;;;;;;5.10;4.60;;;;;;;;;;6084520;29;20315;-68
2022/04/13 02:19:26;;;;;;;9.30;4.53;;;;;;;;;;6088010;29;20327;-69
2022/04/13 02:22:47;;;;;;;5.60;4.40;;;;;;;;;;6086823;29;20229;-68
2022/04/13 02:26:07;;;;;;;4.93;4.37;;;;;;;;;;6088917;29;20599;-69
2022/04/13 02:29:29;;;;;;;6.13;4.80;;;;;;;;;;6088032;29;20656;-69
2022/04/13 02:32:50;;;;;;;5.33;4.83;;;;;;;;;;6089862;29;21918;-68
2022/04/13 02:36:11;;;;;;;4.93;4.27;;;;;;;;;;6082655;29;20658;-68
2022/04/13 02:39:32;;;;;;;6.87;5.53;;;;;;;;;;6088033;29;20516;-67
2022/04/13 02:42:52;;;;;;;8.40;4.97;;;;;;;;;;6083566;29;22241;-68
2022/04/13 02:46:14;;;;;;;6.67;4.60;;;;;;;;;;6086269;29;20224;-68
2022/04/13 02:49:35;;;;;;;6.27;5.47;;;;;;;;;;6088671;29;20228;-68
2022/04/13 02:52:56;;;;;;;7.27;5.50;;;;;;;;;;6085555;29;20232;-68
2022/04/13 02:56:17;;;;;;;6.27;5.67;;;;;;;;;;6084226;29;20315;-68
2022/04/13 02:59:38;;;;;;;5.10;4.60;;;;;;;;;;6086881;29;20240;-68
2022/04/13 03:03:00;;;;;;;6.17;5.57;;;;;;;;;;6084541;29;20331;-67
2022/04/13 03:06:20;;;;;;;5.70;5.20;;;;;;;;;;6085806;29;20236;-68
2022/04/13 03:09:41;;;;;;;6.07;5.47;;;;;;;;;;6087510;29;20232;-68
2022/04/13 03:13:03;;;;;;;6.93;4.87;;;;;;;;;;6087620;29;20232;-69
2022/04/13 03:16:24;;;;;;;6.10;5.00;;;;;;;;;;6086640;29;20543;-68
2022/04/13 03:19:46;;;;;;;5.60;4.93;;;;;;;;;;6084646;29;20232;-68
2022/04/13 03:23:06;;;;;;;5.73;4.80;;;;;;;;;;6085470;29;20244;-67
2022/04/13 03:26:27;;;;;;;4.93;4.37;;;;;;;;;;6087974;29;20251;-68
2022/04/13 03:29:48;;;;;;;5.93;5.33;;;;;;;;;;6087373;29;20255;-68
2022/04/13 03:33:08;;;;;;;6.50;5.07;;;;;;;;;;6082082;29;20256;-68
2022/04/13 03:36:30;;;;;;;5.97;4.77;;;;;;;;;;6081430;29;20240;-68
2022/04/13 03:39:50;;;;;;;6.53;5.13;;;;;;;;;;6085671;29;20233;-69
2022/04/13 03:43:11;;;;;;;8.17;5.43;;;;;;;;;;6082210;29;20240;-68
2022/04/13 03:46:32;;;;;;;6.57;5.50;;;;;;;;;;6084263;29;20572;-68
2022/04/13 03:49:52;;;;;;;9.07;6.20;;;;;;;;;;6086035;29;20236;-68
2022/04/13 03:53:14;;;;;;;6.30;4.90;;;;;;;;;;6082028;29;20228;-69
2022/04/13 03:56:36;;;;;;;7.10;5.30;;;;;;;;;;6083145;29;20256;-69
2022/04/13 03:59:57;;;;;;;6.90;5.80;;;;;;;;;;6080373;29;20615;-69
2022/04/13 04:03:17;;;;;;;10.80;6.53;;;;;;;;;;6076964;29;20274;-68
2022/04/13 04:06:38;;;;;;;6.40;5.70;;;;;;;;;;6085326;29;20511;-68
2022/04/13 04:10:01;;;;;;;6.03;5.33;;;;;;;;;;6076129;29;20241;-68
2022/04/13 04:13:22;;;;;;;8.83;5.90;;;;;;;;;;6080268;29;20240;-67
2022/04/13 04:16:42;;;;;;;10.30;6.40;;;;;;;;;;6086035;29;20698;-69
2022/04/13 04:20:04;;;;;;;7.77;5.93;;;;;;;;;;6087038;29;20237;-68
2022/04/13 04:23:24;;;;;;;5.57;4.90;;;;;;;;;;6083168;29;20237;-67
2022/04/13 04:26:46;;;;;;;6.63;5.93;;;;;;;;;;6081513;29;20224;-68
2022/04/13 04:30:08;;;;;;;5.90;5.30;;;;;;;;;;6081446;29;20228;-68
2022/04/13 04:33:28;;;;;;;7.80;5.73;;;;;;;;;;6081291;29;20245;-68
2022/04/13 04:36:49;;;;;;;6.63;6.03;;;;;;;;;;6073731;29;20531;-69
2022/04/13 04:40:10;;;;;;;8.43;5.60;;;;;;;;;;6080711;29;20232;-68
2022/04/13 04:43:32;;;;;;;6.90;6.07;;;;;;;;;;6084151;29;20852;-69
2022/04/13 04:46:53;;;;;;;7.63;5.43;;;;;;;;;;6083714;29;20365;-68
2022/04/13 04:50:14;;;;;;;7.33;6.60;;;;;;;;;;6086238;29;20244;-68
2022/04/13 04:53:34;;;;;;;8.30;5.40;;;;;;;;;;6082645;29;20632;-67
2022/04/13 04:56:54;;;;;;;6.70;5.93;;;;;;;;;;6079817;29;20224;-68
2022/04/13 05:00:18;;;;;;;7.27;6.03;;;;;;;;;;6079349;29;20567;-68
2022/04/13 05:03:41;;;;;;;8.73;5.97;;;;;;;;;;6075421;29;20228;-68
2022/04/13 05:07:02;;;;;;;6.80;5.93;;;;;;;;;;6078740;29;20637;-68
2022/04/13 05:10:22;;;;;;;12.27;7.17;;;;;;;;;;6083733;29;20328;-68
2022/04/13 05:13:45;;;;;;;10.67;6.23;;;;;;;;;;6080683;29;20576;-69
2022/04/13 05:17:07;;;;;;;10.67;7.43;;;;;;;;;;6086668;29;20231;-73
2022/04/13 05:20:27;;;;;;;8.90;5.83;;;;;;;;;;6089164;29;20675;-71
2022/04/13 05:23:48;;;;;;;8.27;6.70;;;;;;;;;;6084226;29;20237;-72
2022/04/13 05:27:09;;;;;;;6.90;6.13;;;;;;;;;;6083294;29;20232;-71
2022/04/13 05:30:29;;;;;;;9.80;5.97;;;;;;;;;;6090581;29;20244;-70
2022/04/13 05:33:52;;;;;;;9.50;7.90;;;;;;;;;;6090319;29;20568;-71
2022/04/13 05:37:14;;;;;;;7.60;6.73;;;;;;;;;;6089796;29;20225;-70
2022/04/13 05:40:35;;;;;;;11.07;7.20;;;;;;;;;;6077811;29;20693;-71
2022/04/13 05:43:56;;;;;;;6.33;5.60;;;;;;;;;;6080050;29;20546;-70
2022/04/13 05:47:17;;;;;;;9.30;7.20;;;;;;;;;;6073747;29;20252;-72
2022/04/13 05:50:39;;;;;;;7.27;6.27;;;;;;;;;;6069926;29;20240;-70
2022/04/13 05:53:59;;;;;;;14.30;7.13;;;;;;;;;;6067338;29;20244;-70
2022/04/13 05:57:19;;;;;;;7.80;6.93;;;;;;;;;;6067637;29;20236;-70
2022/04/13 06:00:40;;;;;;;8.20;6.83;;;;;;;;;;6068258;29;20244;-73
2022/04/13 06:04:01;;;;;;;8.00;7.00;;;;;;;;;;6071582;29;20240;-71
2022/04/13 06:07:22;;;;;;;9.73;7.83;;;;;;;;;;6075169;29;20239;-71
2022/04/13 06:10:43;;;;;;;7.03;6.33;;;;;;;;;;6073271;29;20236;-71
2022/04/13 06:14:03;;;;;;;8.50;7.50;;;;;;;;;;6032240;29;20599;-70
2022/04/13 06:17:24;;;;;;;7.93;6.97;;;;;;;;;;6080191;29;20225;-71
2022/04/13 06:20:45;;;;;;;12.60;8.23;;;;;;;;;;6083181;29;20229;-71
2022/04/13 06:24:08;;;;;;;10.40;7.80;;;;;;;;;;6078234;29;20678;-69
2022/04/13 06:27:28;;;;;;;9.93;7.77;;;;;;;;;;6071337;29;20248;-70
2022/04/13 06:30:49;;;;;;;8.33;7.50;;;;;;;;;;6086511;29;20236;-75
2022/04/13 06:34:10;;;;;;;9.87;7.93;;;;;;;;;;6082549;29;20236;-71
2022/04/13 06:37:30;;;;;;;8.33;7.07;;;;;;;;;;6057700;29;20244;-68
2022/04/13 06:40:52;;;;;;;7.73;7.00;;;;;;;;;;6083631;29;20614;-70
2022/04/13 06:44:13;;;;;;;10.90;7.27;;;;;;;;;;6092297;29;20572;-70
2022/04/13 06:47:34;;;;;;;9.70;8.33;;;;;;;;;;6096485;29;20240;-71
2022/04/13 06:50:54;;;;;;;10.70;8.47;;;;;;;;;;6090316;29;20891;-71
2022/04/13 06:54:15;;;;;;;7.60;6.63;;;;;;;;;;6094123;29;20595;-70
2022/04/13 06:57:37;;;;;;;9.40;8.43;;;;;;;;;;6099070;29;20236;-70
2022/04/13 07:00:58;;;;;;;11.40;7.80;;;;;;;;;;6076292;29;20237;-70
2022/04/13 07:04:18;;;;;;;10.17;7.00;;;;;;;;;;6097139;29;20232;-70
2022/04/13 07:07:39;;;;;;;11.37;8.77;;;;;;;;;;6095931;29;20607;-71
2022/04/13 07:10:59;;;;;;;8.87;7.97;;;;;;;;;;6097202;29;20274;-72
2022/04/13 07:14:22;;;;;;;8.63;6.90;;;;;;;;;;6092674;29;20228;-70
2022/04/13 07:17:42;;;;;;;7.60;6.90;;;;;;;;;;6094353;29;20236;-71
2022/04/13 07:21:03;;;;;;;9.57;7.63;;;;;;;;;;6093840;29;20225;-71
2022/04/13 07:24:24;;;;;;;10.47;8.50;;;;;;;;;;6095622;29;20654;-71
2022/04/13 07:27:45;;;;;;;11.40;8.63;;;;;;;;;;6085062;29;20237;-71
2022/04/13 07:31:09;;;;;;;8.87;8.07;;;;;;;;;;6096612;29;20612;-71
2022/04/13 07:34:30;;;;;;;11.70;8.23;;;;;;;;;;6097446;29;20240;-71
2022/04/13 07:37:50;;;;;;;11.63;8.63;;;;;;;;;;6082972;29;20232;-71
2022/04/13 07:41:11;;;;;;;9.23;7.40;;;;;;;;;;6095749;29;20240;-70
2022/04/13 07:44:31;;;;;;;16.10;8.57;;;;;;;;;;6094467;29;20248;-71
2022/04/13 07:47:54;;;;;;;11.00;8.20;;;;;;;;;;6095112;29;20506;-70
2022/04/13 07:51:14;;;;;;;10.53;9.37;;;;;;;;;;6088933;29;20308;-71
2022/04/13 07:54:35;;;;;;;8.97;8.07;;;;;;;;;;6095759;29;20778;-70
2022/04/13 07:57:57;;;;;;;9.03;8.13;;;;;;;;;;6088553;29;20240;-71
2022/04/13 08:01:17;;;;;;;10.73;8.23;;;;;;;;;;6083177;29;20233;-69
2022/04/13 08:04:41;;;;;;;11.30;9.13;;;;;;;;;;6083975;29;20236;-70
2022/04/13 08:08:01;;;;;;;11.30;9.20;;;;;;;;;;6096198;29;20248;-71
2022/04/13 08:11:22;;;;;;;9.17;8.23;;;;;;;;;;6093053;29;20232;-71
2022/04/13 08:14:45;;;;;;;8.57;7.77;;;;;;;;;;6095894;29;20529;-71
2022/04/13 08:18:06;;;;;;;9.20;8.30;;;;;;;;;;6091728;29;20342;-70
2022/04/13 08:21:28;;;;;;;10.17;8.47;;;;;;;;;;6085799;29;20232;-71
2022/04/13 08:24:48;;;;;;;9.40;8.10;;;;;;;;;;6094570;29;20228;-70
2022/04/13 08:28:09;;;;;;;9.40;8.50;;;;;;;;;;6088342;29;20228;-71
2022/04/13 08:31:29;;;;;;;10.80;9.70;;;;;;;;;;6093283;29;20769;-70
2022/04/13 08:34:51;;;;;;;10.53;8.80;;;;;;;;;;6090957;29;20868;-70
2022/04/13 08:38:14;;;;;;;9.83;8.20;;;;;;;;;;6078049;29;20658;-70
2022/04/13 08:41:40;;;;;;;8.70;7.77;;;;;;;;;;6094812;29;20248;-70
2022/04/13 08:45:03;;;;;;;10.80;8.80;;;;;;;;;;6099579;29;20236;-69
2022/04/13 08:48:26;;;;;;;9.10;8.23;;;;;;;;;;6088648;29;20240;-70
2022/04/13 08:51:47;;;;;;;9.63;8.50;;;;;;;;;;6089835;29;20240;-70
2022/04/13 08:55:11;;;;;;;8.93;8.03;;;;;;;;;;6097679;29;20595;-69
2022/04/13 08:58:35;;;;;;;10.70;7.87;;;;;;;;;;6100801;29;20237;-69
2022/04/13 09:01:59;;;;;;;9.97;8.97;;;;;;;;;;6094319;29;20320;-70
2022/04/13 09:05:20;;;;;;;10.80;9.50;;;;;;;;;;6094601;29;20312;-70
2022/04/13 09:08:46;;;;;;;11.23;8.60;;;;;;;;;;6097408;29;20615;-70
2022/04/13 09:12:08;;;;;;;9.60;8.53;;;;;;;;;;6089875;29;20232;-69
2022/04/13 09:15:29;;;;;;;9.53;7.70;;;;;;;;;;6097325;29;20236;-70
2022/04/13 09:18:50;;;;;;;10.33;8.47;;;;;;;;;;6093368;29;20241;-70
2022/04/13 09:22:10;;;;;;;8.60;7.80;;;;;;;;;;6097211;29;21459;-69
2022/04/13 09:25:32;;;;;;;9.87;8.87;;;;;;;;;;6097766;29;20244;-70
2022/04/13 09:28:54;;;;;;;9.73;8.40;;;;;;;;;;6090966;29;20236;-70
2022/04/13 09:32:15;;;;;;;10.17;8.87;;;;;;;;;;6098072;29;20229;-70
2022/04/13 09:35:36;;;;;;;9.13;8.20;;;;;;;;;;6093368;29;20233;-70
2022/04/13 09:38:57;;;;;;;11.90;9.80;;;;;;;;;;6092968;29;20598;-68
2022/04/13 09:42:17;;;;;;;10.37;9.00;;;;;;;;;;6098961;29;20260;-71
2022/04/13 09:45:41;;;;;;;11.40;8.47;;;;;;;;;;6095365;29;20225;-71
2022/04/13 09:49:08;;;;;;;10.47;9.40;;;;;;;;;;6098932;29;20232;-70
2022/04/13 09:52:33;;;;;;;10.60;8.47;;;;;;;;;;6085453;29;20256;-72
2022/04/13 09:55:54;;;;;;;13.47;9.40;;;;;;;;;;6090186;29;20323;-71
2022/04/13 09:59:24;;;;;;;11.03;8.80;;;;;;;;;;6098031;29;20233;-70
2022/04/13 10:02:46;;;;;;;10.70;8.90;;;;;;;;;;6096185;29;20240;-71
2022/04/13 10:06:07;;;;;;;12.67;8.80;;;;;;;;;;6089543;29;20232;-71
2022/04/13 10:09:32;;;;;;;9.38;8.45;;;;;;;;;;6094847;29;20232;-72
2022/04/13 10:12:53;;;;;;;12.35;9.30;;;;;;;;;;6093572;29;20240;-70
2022/04/13 10:16:14;;;;;;;10.07;9.00;;;;;;;;;;6096341;29;20233;-72
2022/04/13 10:19:38;;;;;;;9.87;8.57;;;;;;;;;;6097864;29;20236;-72
2022/04/13 10:22:59;;;;;;;10.23;9.23;;;;;;;;;;6095291;29;20241;-72
2022/04/13 10:26:20;;;;;;;11.40;7.88;;;;;;;;;;6097691;29;20244;-71
2022/04/13 10:29:42;;;;;;;17.88;9.77;;;;;;;;;;6096491;29;20236;-71
2022/04/13 10:33:03;;;;;;;9.10;7.68;;;;;;;;;;6096325;29;20315;-71
2022/04/13 10:36:25;;;;;;;10.70;9.10;;;;;;;;;;6094237;29;20225;-71
2022/04/13 10:39:46;;;;;;;10.75;8.70;;;;;;;;;;6085566;29;20233;-71
2022/04/13 10:43:09;;;;;;;10.07;8.85;;;;;;;;;;6097222;29;20233;-71
2022/04/13 10:46:31;;;;;;;12.82;9.93;;;;;;;;;;6094700;29;20236;-70
2022/04/13 10:49:59;;;;;;;11.10;9.70;;;;;;;;;;6096857;29;20248;-70
2022/04/13 10:53:24;;;;;;;12.55;9.77;;;;;;;;;;6095445;29;20225;-69
2022/04/13 10:56:47;;;;;;;14.57;10.55;;;;;;;;;;6097147;29;20236;-71
2022/04/13 11:00:10;;;;;;;11.82;9.98;;;;;;;;;;6094292;29;20272;-69
2022/04/13 11:03:34;;;;;;;10.68;9.52;;;;;;;;;;6091202;29;20237;-70
2022/04/13 11:06:55;;;;;;;11.63;9.68;;;;;;;;;;6093189;29;20240;-71
2022/04/13 11:10:19;;;;;;;11.35;8.57;;;;;;;;;;6095483;29;20235;-69
2022/04/13 11:13:40;;;;;;;12.60;9.85;;;;;;;;;;6093209;29;20232;-71
2022/04/13 11:17:19;;;;;;;12.80;10.00;;;;;;;;;;6094120;29;20227;-70
2022/04/13 11:21:04;;;;;;;13.10;10.00;;;;;;;;;;6093403;29;20557;-70
2022/04/13 11:24:32;;;;;;;14.32;10.52;;;;;;;;;;6092971;29;20419;-69
2022/04/13 11:27:54;;;;;;;11.15;10.02;;;;;;;;;;6094178;29;20236;-70
2022/04/13 11:31:15;;;;;;;11.90;10.38;;;;;;;;;;6095492;29;20315;-70
2022/04/13 11:34:37;;;;;;;15.05;11.88;;;;;;;;;;6097134;29;20247;-68
2022/04/13 11:38:05;;;;;;;12.77;8.93;;;;;;;;;;6084348;29;20610;-70
2022/04/13 11:41:25;;;;;;;15.10;10.45;;;;;;;;;;6089821;29;20767;-70
2022/04/13 11:44:48;;;;;;;18.50;13.13;;;;;;;;;;6094678;29;20240;-70
2022/04/13 11:48:09;;;;;;;17.98;11.30;;;;;;;;;;6093564;29;20240;-70
2022/04/13 11:51:30;;;;;;;15.80;12.38;;;;;;;;;;6084150;29;20240;-70
2022/04/13 11:54:56;;;;;;;18.55;14.13;;;;;;;;;;6092848;29;20239;-69
2022/04/13 11:58:21;;;;;;;18.90;13.35;;;;;;;;;;6089561;29;20233;-70
2022/04/13 12:01:53;;;;;;;20.83;13.73;;;;;;;;;;6090126;29;20225;-70
2022/04/13 12:05:14;;;;;;;18.80;13.45;;;;;;;;;;6095478;29;20232;-70
2022/04/13 12:08:36;;;;;;;19.20;14.23;;;;;;;;;;6094294;29;20272;-69
2022/04/13 12:11:58;;;;;;;19.08;14.57;;;;;;;;;;6094773;29;20311;-68
2022/04/13 12:15:18;;;;;;;19.23;12.93;;;;;;;;;;6089215;29;20270;-69
2022/04/13 12:18:41;;;;;;;16.92;12.02;;;;;;;;;;6094995;29;20611;-70
2022/04/13 12:22:15;;;;;;;18.92;12.07;;;;;;;;;;6089520;29;20232;-69
2022/04/13 12:25:41;;;;;;;17.17;11.82;;;;;;;;;;6074721;29;20255;-69
2022/04/13 12:29:02;;;;;;;19.13;12.57;;;;;;;;;;6081871;29;20236;-70
2022/04/13 12:32:23;;;;;;;17.90;11.02;;;;;;;;;;6091891;29;20232;-71
2022/04/13 12:35:49;;;;;;;12.25;10.15;;;;;;;;;;6065679;29;20236;-70
2022/04/13 12:39:11;;;;;;;12.50;10.10;;;;;;;;;;6083833;29;20236;-70
2022/04/13 12:42:34;;;;;;;16.23;12.23;;;;;;;;;;6092163;29;20236;-71
2022/04/13 12:45:55;;;;;;;18.27;12.85;;;;;;;;;;6090272;29;20229;-71
2022/04/13 12:49:18;;;;;;;15.68;10.65;;;;;;;;;;6091679;29;20236;-70
2022/04/13 12:52:41;;;;;;;15.32;12.40;;;;;;;;;;6094812;29;20562;-69
2022/04/13 12:56:02;;;;;;;19.17;11.55;;;;;;;;;;6095298;29;20232;-70
2022/04/13 12:59:25;;;;;;;16.55;11.32;;;;;;;;;;6093347;29;20224;-71
2022/04/13 13:02:50;;;;;;;13.95;11.52;;;;;;;;;;6092030;29;20261;-70
2022/04/13 13:06:11;;;;;;;20.63;14.15;;;;;;;;;;6092998;29;20232;-70
2022/04/13 13:09:37;;;;;;;17.15;11.32;;;;;;;;;;6092123;29;20237;-69
2022/04/13 13:13:08;;;;;;;17.83;13.00;;;;;;;;;;6090319;29;20244;-71
2022/04/13 13:16:30;;;;;;;20.17;14.95;;;;;;;;;;6094100;29;20319;-69
2022/04/13 13:19:52;;;;;;;21.05;11.95;;;;;;;;;;6094205;29;20617;-70
2022/04/13 13:23:12;;;;;;;19.23;12.93;;;;;;;;;;6080200;29;20236;-70
2022/04/13 13:26:34;;;;;;;23.85;14.15;;;;;;;;;;6093223;29;20228;-69
2022/04/13 13:29:56;;;;;;;22.98;13.23;;;;;;;;;;6095165;29;20232;-70
2022/04/13 13:33:16;;;;;;;24.08;14.48;;;;;;;;;;6098625;29;20712;-70
2022/04/13 13:36:37;;;;;;;16.58;11.93;;;;;;;;;;6099438;29;20618;-70
2022/04/13 13:39:58;;;;;;;17.45;12.02;;;;;;;;;;6100367;29;20315;-70
2022/04/13 13:43:41;;;;;;;14.00;10.05;;;;;;;;;;6098201;29;20296;-68
2022/04/13 13:47:05;;;;;;;15.15;10.70;;;;;;;;;;6093836;29;20244;-70
2022/04/13 13:50:26;;;;;;;15.98;11.48;;;;;;;;;;6097834;29;20228;-70
2022/04/13 13:53:50;;;;;;;13.13;10.30;;;;;;;;;;6094075;29;20243;-70
2022/04/13 13:57:12;;;;;;;11.00;9.43;;;;;;;;;;6090652;29;20224;-69
2022/04/13 14:00:34;;;;;;;15.13;9.30;;;;;;;;;;6096140;29;20241;-70
2022/04/13 14:03:56;;;;;;;13.30;9.75;;;;;;;;;;6090715;29;20665;-69
2022/04/13 14:07:18;;;;;;;11.77;8.73;;;;;;;;;;6081751;29;20240;-68
2022/04/13 14:10:39;;;;;;;14.00;8.13;;;;;;;;;;6090726;29;20237;-68
2022/04/13 14:13:59;;;;;;;9.88;8.60;;;;;;;;;;6088139;29;20277;-69
2022/04/13 14:17:20;;;;;;;12.77;9.85;;;;;;;;;;6092014;29;20693;-69
2022/04/13 14:20:42;;;;;;;11.88;9.48;;;;;;;;;;6085801;29;20229;-68
2022/04/13 14:24:03;;;;;;;13.05;11.27;;;;;;;;;;6091675;29;20240;-68
2022/04/13 14:27:25;;;;;;;13.77;10.63;;;;;;;;;;6090434;29;20236;-68
2022/04/13 14:30:45;;;;;;;13.95;11.35;;;;;;;;;;6092686;29;20233;-69
2022/04/13 14:34:06;;;;;;;11.75;9.98;;;;;;;;;;6085432;29;20315;-69
2022/04/13 14:37:28;;;;;;;13.25;9.65;;;;;;;;;;6080547;29;20683;-69
2022/04/13 14:40:50;;;;;;;15.55;10.93;;;;;;;;;;6085110;29;20240;-70
2022/04/13 14:44:12;;;;;;;10.07;8.98;;;;;;;;;;6083553;29;20229;-69
2022/04/13 14:47:34;;;;;;;14.98;9.82;;;;;;;;;;6084808;29;20248;-69
2022/04/13 14:50:57;;;;;;;14.20;11.07;;;;;;;;;;6081199;29;22284;-69
2022/04/13 14:54:19;;;;;;;15.00;12.48;;;;;;;;;;6081325;29;20233;-69
2022/04/13 14:57:42;;;;;;;14.70;11.50;;;;;;;;;;6077636;29;20228;-69
2022/04/13 15:01:04;;;;;;;15.15;12.55;;;;;;;;;;6079467;29;20248;-69
2022/04/13 15:04:25;;;;;;;14.88;10.50;;;;;;;;;;6086034;29;20256;-69
2022/04/13 15:07:48;;;;;;;13.70;10.93;;;;;;;;;;6093868;29;20240;-69
2022/04/13 15:11:10;;;;;;;14.48;10.57;;;;;;;;;;6096393;29;20681;-69
2022/04/13 15:14:31;;;;;;;13.50;10.20;;;;;;;;;;6094517;29;20248;-70
2022/04/13 15:17:52;;;;;;;12.55;9.85;;;;;;;;;;6096892;29;20756;-69
2022/04/13 15:21:12;;;;;;;12.98;11.48;;;;;;;;;;6095913;29;20236;-70
2022/04/13 15:24:33;;;;;;;13.15;10.07;;;;;;;;;;6096620;29;20228;-69
2022/04/13 15:27:55;;;;;;;14.18;10.13;;;;;;;;;;6096902;29;20244;-70
2022/04/13 15:31:16;;;;;;;14.68;12.13;;;;;;;;;;6090244;29;20224;-70
2022/04/13 15:34:37;;;;;;;14.38;9.27;;;;;;;;;;6084393;29;20274;-69
2022/04/13 15:37:58;;;;;;;12.65;10.73;;;;;;;;;;6086316;29;20512;-69
2022/04/13 15:41:19;;;;;;;15.60;10.77;;;;;;;;;;6075584;29;20241;-69
2022/04/13 15:44:41;;;;;;;11.43;10.00;;;;;;;;;;6086385;29;20329;-69
2022/04/13 15:48:02;;;;;;;13.77;10.90;;;;;;;;;;6092463;29;20663;-68
2022/04/13 15:51:22;;;;;;;19.45;11.65;;;;;;;;;;6088762;29;20569;-69
2022/04/13 15:54:43;;;;;;;10.75;9.85;;;;;;;;;;6093645;29;20228;-69
2022/04/13 15:58:03;;;;;;;12.82;11.27;;;;;;;;;;6086014;29;20233;-69
2022/04/13 16:01:25;;;;;;;11.27;10.15;;;;;;;;;;6083585;29;20240;-70
2022/04/13 16:04:46;;;;;;;11.00;9.68;;;;;;;;;;6082478;29;20236;-70
2022/04/13 16:08:07;;;;;;;12.98;11.30;;;;;;;;;;6090303;29;20332;-70
2022/04/13 16:11:28;;;;;;;12.05;10.32;;;;;;;;;;6089723;29;20233;-69
2022/04/13 16:14:49;;;;;;;13.07;11.77;;;;;;;;;;6081081;29;20240;-68
2022/04/13 16:18:11;;;;;;;14.57;13.07;;;;;;;;;;6081117;29;20241;-71
2022/04/13 16:21:31;;;;;;;14.50;11.25;;;;;;;;;;6078116;29;20244;-71
2022/04/13 16:24:52;;;;;;;11.50;10.40;;;;;;;;;;6076479;29;20240;-72
2022/04/13 16:28:13;;;;;;;12.18;10.93;;;;;;;;;;6075011;29;20228;-70
2022/04/13 16:31:35;;;;;;;10.27;9.27;;;;;;;;;;6072364;29;20887;-72
2022/04/13 16:34:57;;;;;;;15.23;13.50;;;;;;;;;;6076031;29;20241;-70
2022/04/13 16:38:20;;;;;;;15.73;13.27;;;;;;;;;;6079322;29;20240;-72
2022/04/13 16:41:41;;;;;;;15.63;14.07;;;;;;;;;;6079213;29;20244;-70
2022/04/13 16:45:02;;;;;;;11.02;9.93;;;;;;;;;;6084581;29;20614;-71
2022/04/13 16:48:22;;;;;;;15.57;11.65;;;;;;;;;;6086212;29;20231;-70
2022/04/13 16:51:44;;;;;;;20.58;18.65;;;;;;;;;;6089012;29;20239;-71
2022/04/13 16:55:08;;;;;;;15.27;13.70;;;;;;;;;;6086663;29;20240;-70
2022/04/13 16:58:28;;;;;;;19.92;17.50;;;;;;;;;;6085928;29;20237;-69
2022/04/13 17:01:49;;;;;;;14.50;13.20;;;;;;;;;;6089424;29;20236;-71
2022/04/13 17:05:10;;;;;;;12.82;11.38;;;;;;;;;;6087529;29;20228;-71
2022/04/13 17:08:32;;;;;;;13.25;11.95;;;;;;;;;;6087687;29;20527;-71
2022/04/13 17:11:53;;;;;;;14.07;12.23;;;;;;;;;;6092485;29;20221;-70
2022/04/13 17:15:14;;;;;;;15.32;13.68;;;;;;;;;;6091109;29;20634;-70
2022/04/13 17:18:34;;;;;;;17.50;15.90;;;;;;;;;;6092625;29;20248;-70
2022/04/13 17:21:55;;;;;;;16.42;14.82;;;;;;;;;;6096633;29;20232;-72
2022/04/13 17:25:17;;;;;;;18.27;15.85;;;;;;;;;;6086708;29;20236;-71
2022/04/13 17:28:38;;;;;;;13.82;12.45;;;;;;;;;;6082884;29;20245;-68
2022/04/13 17:31:58;;;;;;;14.75;13.30;;;;;;;;;;6074009;29;20232;-70
2022/04/13 17:35:19;;;;;;;13.60;12.20;;;;;;;;;;6088692;29;20268;-70
2022/04/13 17:38:40;;;;;;;18.27;16.45;;;;;;;;;;6081764;29;20229;-69
2022/04/13 17:42:02;;;;;;;20.88;18.77;;;;;;;;;;6080333;29;20244;-72
2022/04/13 17:45:23;;;;;;;15.70;13.70;;;;;;;;;;6082553;29;20248;-71
2022/04/13 17:48:43;;;;;;;15.90;14.38;;;;;;;;;;6086400;29;20240;-71
2022/04/13 17:52:04;;;;;;;22.20;19.83;;;;;;;;;;6087815;29;20244;-72
2022/04/13 17:55:25;;;;;;;17.58;14.57;;;;;;;;;;6088407;29;20237;-71
2022/04/13 17:58:47;;;;;;;12.23;10.95;;;;;;;;;;6075845;29;20634;-72
2022/04/13 18:02:08;;;;;;;23.25;21.05;;;;;;;;;;6080653;29;20229;-71
2022/04/13 18:05:28;;;;;;;48.40;43.30;;;;;;;;;;6081171;29;20236;-71
2022/04/13 18:08:49;;;;;;;13.95;10.93;;;;;;;;;;6081013;29;20241;-71
2022/04/13 18:12:10;;;;;;;12.85;10.63;;;;;;;;;;6083930;29;20521;-71
2022/04/13 18:15:33;;;;;;;11.40;9.02;;;;;;;;;;6084425;29;20524;-71
2022/04/13 18:18:54;;;;;;;7.93;7.13;;;;;;;;;;6084709;29;20263;-71
2022/04/13 18:22:15;;;;;;;9.98;6.65;;;;;;;;;;6079845;29;20343;-71
2022/04/13 18:25:35;;;;;;;14.73;12.05;;;;;;;;;;6086537;29;20630;-76
2022/04/13 18:28:56;;;;;;;32.60;28.58;;;;;;;;;;6090103;29;20519;-73
2022/04/13 18:32:18;;;;;;;27.00;24.15;;;;;;;;;;6089976;29;20232;-69
2022/04/13 18:35:39;;;;;;;8.20;6.35;;;;;;;;;;6091524;29;20237;-70
2022/04/13 18:39:00;;;;;;;12.48;11.23;;;;;;;;;;6085502;29;20225;-69
2022/04/13 18:42:20;;;;;;;11.95;8.57;;;;;;;;;;6090596;29;20556;-69
2022/04/13 18:45:41;;;;;;;9.05;7.43;;;;;;;;;;6090527;29;20236;-71
2022/04/13 18:49:04;;;;;;;19.88;15.88;;;;;;;;;;6089832;29;20335;-69
2022/04/13 18:52:25;;;;;;;13.90;11.07;;;;;;;;;;6086261;29;20240;-70
2022/04/13 18:55:46;;;;;;;20.08;17.27;;;;;;;;;;6090734;29;20232;-70
2022/04/13 18:59:09;;;;;;;7.97;7.18;;;;;;;;;;6091972;29;20236;-69
2022/04/13 19:02:30;;;;;;;10.73;7.85;;;;;;;;;;6091846;29;20236;-70
2022/04/13 19:05:52;;;;;;;8.45;5.05;;;;;;;;;;6080187;29;20248;-70
2022/04/13 19:09:13;;;;;;;6.93;4.85;;;;;;;;;;6087833;29;20267;-70
2022/04/13 19:12:35;;;;;;;7.90;4.97;;;;;;;;;;6088610;29;20236;-71
2022/04/13 19:15:55;;;;;;;6.95;4.57;;;;;;;;;;6084735;29;20228;-70
2022/04/13 19:19:16;;;;;;;7.65;5.88;;;;;;;;;;6084952;29;20232;-72
2022/04/13 19:22:39;;;;;;;7.72;4.47;;;;;;;;;;6080521;29;20252;-73
2022/04/13 19:26:00;;;;;;;7.05;5.07;;;;;;;;;;6082568;29;20224;-71
2022/04/13 19:29:21;;;;;;;9.57;6.55;;;;;;;;;;6078818;29;20232;-73
2022/04/13 19:32:42;;;;;;;13.73;7.82;;;;;;;;;;6085770;29;20327;-73
2022/04/13 19:36:05;;;;;;;9.52;5.63;;;;;;;;;;6080831;29;20632;-72
2022/04/13 19:39:27;;;;;;;6.13;5.53;;;;;;;;;;6074760;29;20241;-73
2022/04/13 19:42:49;;;;;;;9.40;5.23;;;;;;;;;;6086185;29;20636;-73
2022/04/13 19:46:10;;;;;;;9.90;6.28;;;;;;;;;;6083370;29;20233;-73
2022/04/13 19:49:32;;;;;;;8.85;6.07;;;;;;;;;;6088072;29;20233;-71
2022/04/13 19:52:53;;;;;;;12.87;8.87;;;;;;;;;;6082681;29;20232;-74